F/V San Prudentzio B — EAUY — position and weather

sailwx.info

Track history (hours):
 
Tides and Currents Weather Stations Pressure Air Temp Water Temp Dewpoint Dewpoint Depression Visibility Wind Speed Wind Dir Waves Ship Positions

F/V San Prudentzio B

Last reported at 2017-Nov-17 13:42 UTC. Time now 2017-Nov-22 03:53 UTC.
Position N 43°18' W 002°12'.

Length 36 m.

Type: Fishing. MMSI: 224075190.

Date/timePositionNaut miles runAvg speedWind from/ knotsBaromVisibWave heightAir tempDewpointWater temp
2017-Nov-17 13:42N 43°18' W 002°12'0 0.0
2017-Nov-17 13:24N 43°18' W 002°12'0 0.1
2017-Nov-17 12:46N 43°18' W 002°12'0 0.0
2017-Nov-17 12:28N 43°18' W 002°12'0 0.1
2017-Nov-17 12:00N 43°18' W 002°12'4 8.8
2017-Nov-17 11:30N 43°22' W 002°08'510.1
2017-Nov-17 11:00N 43°26' W 002°05'510.1
2017-Nov-17 10:30N 43°31' W 002°02'5 9.9
2017-Nov-17 10:00N 43°35' W 001°58'510.1
2017-Nov-17 09:30N 43°39' W 001°55'510.1
2017-Nov-17 09:00N 43°44' W 001°51'510.2
2017-Nov-17 08:30N 43°48' W 001°48'510.0
2017-Nov-17 08:00N 43°53' W 001°45'510.1
2017-Nov-17 07:30N 43°57' W 001°41'510.0
2017-Nov-17 07:00N 44°01' W 001°38'5 9.9
2017-Nov-17 06:30N 44°06' W 001°34'510.2
2017-Nov-17 06:00N 44°10' W 001°31'4 7.7
2017-Nov-17 05:30N 44°13' W 001°28'0 0.4
2017-Nov-17 05:00N 44°14' W 001°28'0 0.2
2017-Nov-17 04:30N 44°14' W 001°28'0 0.9
2017-Nov-17 04:00N 44°14' W 001°28'2 4.9
2017-Nov-17 03:30N 44°12' W 001°30'0 0.4
2017-Nov-17 03:00N 44°12' W 001°30'0 0.3
2017-Nov-17 02:30N 44°12' W 001°30'0 0.3
2017-Nov-17 02:00N 44°12' W 001°30'3 5.1
2017-Nov-17 01:30N 44°10' W 001°31'5 9.7
2017-Nov-17 01:00N 44°05' W 001°32'5 9.8
2017-Nov-17 00:30N 43°60' W 001°32'4 8.7
2017-Nov-17 00:00N 43°56' W 001°34'2 4.4
2017-Nov-16 23:30N 43°54' W 001°35'0 0.0
2017-Nov-16 23:00N 43°54' W 001°35'0 0.2
2017-Nov-16 22:30N 43°54' W 001°35'3 6.7
2017-Nov-16 22:00N 43°57' W 001°33'4 8.7
2017-Nov-16 21:30N 44°01' W 001°32'1 2.5
2017-Nov-16 21:00N 44°00' W 001°33'4 8.9
2017-Nov-16 20:30N 43°57' W 001°37'4 7.4
2017-Nov-16 20:01N 43°54' W 001°40'0 0.2
2017-Nov-16 19:30N 43°54' W 001°40'0 0.3
2017-Nov-16 19:00N 43°54' W 001°41'0 0.2
2017-Nov-16 18:31N 43°54' W 001°41'5 9.6
2017-Nov-16 18:00N 43°51' W 001°45'510.0
2017-Nov-16 17:30N 43°46' W 001°49'510.0
2017-Nov-16 17:00N 43°42' W 001°53'5 9.8
2017-Nov-16 16:30N 43°38' W 001°56'510.1
2017-Nov-16 16:00N 43°34' W 001°60'510.0
2017-Nov-16 15:30N 43°30' W 002°04'5 9.8
2017-Nov-16 15:00N 43°25' W 002°07'510.0
2017-Nov-16 14:30N 43°21' W 002°10'3 5.8
2017-Nov-16 14:00N 43°18' W 002°12'0 0.0
2017-Nov-16 13:30N 43°18' W 002°12'0 0.0
2017-Nov-16 13:00N 43°18' W 002°12'2 4.8
2017-Nov-16 12:30N 43°20' W 002°10'510.3
2017-Nov-16 12:00N 43°24' W 002°06'510.4
2017-Nov-16 11:30N 43°29' W 002°02'510.4
2017-Nov-16 11:00N 43°33' W 001°58'510.2
2017-Nov-16 10:30N 43°37' W 001°54'510.3
2017-Nov-16 10:00N 43°42' W 001°51'510.5
2017-Nov-16 09:30N 43°46' W 001°47'510.3
2017-Nov-16 09:00N 43°51' W 001°43'510.1
2017-Nov-16 08:30N 43°55' W 001°39'510.0
2017-Nov-16 08:00N 43°59' W 001°36'510.1
2017-Nov-16 07:30N 44°04' W 001°32'4 7.2
2017-Nov-16 07:00N 44°07' W 001°29'0 0.4
2017-Nov-16 06:30N 44°07' W 001°29'0 0.2
2017-Nov-16 06:00N 44°07' W 001°29'1 1.7
2017-Nov-16 05:30N 44°08' W 001°29'1 1.5
2017-Nov-16 05:00N 44°07' W 001°28'4 7.2
2017-Nov-16 04:30N 44°10' W 001°32'0 0.5
2017-Nov-16 04:00N 44°10' W 001°32'0 0.4
2017-Nov-16 03:30N 44°10' W 001°31'0 0.5
2017-Nov-16 03:00N 44°10' W 001°31'2 3.9
2017-Nov-16 02:30N 44°08' W 001°31'4 7.8
2017-Nov-16 02:00N 44°05' W 001°34'2 2.6
2017-Nov-16 01:11N 44°07' W 001°33'0 0.0
2017-Nov-16 01:00N 44°07' W 001°33'0 0.2
2017-Nov-16 00:30N 44°07' W 001°33'1 2.2
2017-Nov-16 00:00N 44°08' W 001°32'2 4.7
2017-Nov-15 23:30N 44°05' W 001°32'1 2.4
2017-Nov-15 23:00N 44°05' W 001°31'2 1.4
2017-Nov-15 21:55N 44°06' W 001°31'2 5.6
2017-Nov-15 21:30N 44°08' W 001°33'1 1.0
2017-Nov-15 20:27N 44°09' W 001°32'4 9.5
2017-Nov-15 20:00N 44°05' W 001°35'510.1
2017-Nov-15 19:30N 44°01' W 001°39'510.0
2017-Nov-15 19:00N 43°57' W 001°42'510.1
2017-Nov-15 18:30N 43°52' W 001°45'5 9.8
2017-Nov-15 18:00N 43°48' W 001°49'5 9.4
2017-Nov-15 17:30N 43°44' W 001°52'5 9.5
2017-Nov-15 17:00N 43°40' W 001°55'5 9.8
2017-Nov-15 16:30N 43°36' W 001°59'5 9.8
2017-Nov-15 16:00N 43°31' W 002°02'5 9.7
2017-Nov-15 15:30N 43°27' W 002°05'5 9.8
2017-Nov-15 15:00N 43°23' W 002°09'5 9.8
2017-Nov-15 14:30N 43°18' W 002°12'0 0.4
2017-Nov-15 14:00N 43°18' W 002°12'5 9.2
2017-Nov-15 13:30N 43°22' W 002°09'510.4
2017-Nov-15 13:00N 43°27' W 002°05'510.4
2017-Nov-15 12:30N 43°31' W 002°02'510.1
2017-Nov-15 12:00N 43°36' W 001°58'510.0
2017-Nov-15 11:30N 43°40' W 001°55'5 9.9
2017-Nov-15 11:00N 43°44' W 001°52'510.1
2017-Nov-15 10:30N 43°49' W 001°49'510.0
2017-Nov-15 10:00N 43°53' W 001°45'510.0
2017-Nov-15 09:30N 43°58' W 001°42'5 9.9
2017-Nov-15 09:00N 44°02' W 001°38'5 9.8
2017-Nov-15 08:30N 44°06' W 001°35'5 9.8
2017-Nov-15 08:00N 44°10' W 001°32'3 5.5
2017-Nov-15 07:30N 44°13' W 001°30'2 3.9
2017-Nov-15 06:57N 44°11' W 001°30'0 0.4
2017-Nov-15 06:29N 44°11' W 001°30'1 0.7
2017-Nov-15 05:10N 44°12' W 001°30'3 3.0
2017-Nov-15 04:10N 44°14' W 001°34'4 3.2
2017-Nov-15 02:51N 44°18' W 001°34'0 0.4
2017-Nov-15 02:21N 44°18' W 001°34'0 0.4
2017-Nov-15 01:58N 44°18' W 001°34'0 0.4
2017-Nov-15 01:28N 44°18' W 001°34'0 0.5
2017-Nov-15 00:37N 44°18' W 001°33'0 0.6
2017-Nov-15 00:27N 44°18' W 001°33'0 0.5
2017-Nov-14 23:44N 44°19' W 001°33'0 0.5
2017-Nov-14 23:30N 44°19' W 001°32'3 4.4
2017-Nov-14 22:53N 44°19' W 001°29'6 1.6
2017-Nov-14 19:06N 44°22' W 001°36'5 6.6
2017-Nov-14 18:17N 44°21' W 001°29'23 9.1
2017-Nov-14 15:48N 43°60' W 001°39'3 9.4
2017-Nov-14 15:29N 43°57' W 001°41'5 9.3
2017-Nov-14 15:00N 43°53' W 001°43'5 9.3
2017-Nov-14 14:30N 43°49' W 001°46'5 9.2
2017-Nov-14 14:00N 43°45' W 001°50'5 9.2
2017-Nov-14 13:30N 43°41' W 001°53'5 9.1
2017-Nov-14 13:00N 43°37' W 001°56'5 9.1
2017-Nov-14 12:30N 43°33' W 001°59'4 8.8
2017-Nov-14 12:00N 43°29' W 002°03'4 8.7
2017-Nov-14 11:30N 43°26' W 002°06'4 8.7
2017-Nov-14 11:00N 43°22' W 002°09'4 8.8
2017-Nov-14 10:31N 43°18' W 002°12'0 0.5
2017-Nov-14 10:00N 43°18' W 002°12'0 0.0
2017-Nov-14 09:30N 43°18' W 002°12'  
Track history (hours):
 
Tides and Currents Weather Stations Pressure Air Temp Water Temp Dewpoint Dewpoint Depression Visibility Wind Speed Wind Dir Waves Ship Positions

F/V San Prudentzio B

Last reported at 2017-Nov-17 13:42 UTC. Time now 2017-Nov-22 03:53 UTC.
Position N 43°18' W 002°12'.

Length 36 m.

Type: Fishing. MMSI: 224075190.

Date/timePositionNaut miles runAvg speedWind from/ knotsBaromVisibWave heightAir tempDewpointWater temp
2017-Nov-17 13:42N 43°18' W 002°12'0 0.0
2017-Nov-17 13:24N 43°18' W 002°12'0 0.1
2017-Nov-17 12:46N 43°18' W 002°12'0 0.0
2017-Nov-17 12:28N 43°18' W 002°12'0 0.1
2017-Nov-17 12:00N 43°18' W 002°12'4 8.8
2017-Nov-17 11:30N 43°22' W 002°08'510.1
2017-Nov-17 11:00N 43°26' W 002°05'510.1
2017-Nov-17 10:30N 43°31' W 002°02'5 9.9
2017-Nov-17 10:00N 43°35' W 001°58'510.1
2017-Nov-17 09:30N 43°39' W 001°55'510.1
2017-Nov-17 09:00N 43°44' W 001°51'510.2
2017-Nov-17 08:30N 43°48' W 001°48'510.0
2017-Nov-17 08:00N 43°53' W 001°45'510.1
2017-Nov-17 07:30N 43°57' W 001°41'510.0
2017-Nov-17 07:00N 44°01' W 001°38'5 9.9
2017-Nov-17 06:30N 44°06' W 001°34'510.2
2017-Nov-17 06:00N 44°10' W 001°31'4 7.7
2017-Nov-17 05:30N 44°13' W 001°28'0 0.4
2017-Nov-17 05:00N 44°14' W 001°28'0 0.2
2017-Nov-17 04:30N 44°14' W 001°28'0 0.9
2017-Nov-17 04:00N 44°14' W 001°28'2 4.9
2017-Nov-17 03:30N 44°12' W 001°30'0 0.4
2017-Nov-17 03:00N 44°12' W 001°30'0 0.3
2017-Nov-17 02:30N 44°12' W 001°30'0 0.3
2017-Nov-17 02:00N 44°12' W 001°30'3 5.1
2017-Nov-17 01:30N 44°10' W 001°31'5 9.7
2017-Nov-17 01:00N 44°05' W 001°32'5 9.8
2017-Nov-17 00:30N 43°60' W 001°32'4 8.7
2017-Nov-17 00:00N 43°56' W 001°34'2 4.4
2017-Nov-16 23:30N 43°54' W 001°35'0 0.0
2017-Nov-16 23:00N 43°54' W 001°35'0 0.2
2017-Nov-16 22:30N 43°54' W 001°35'3 6.7
2017-Nov-16 22:00N 43°57' W 001°33'4 8.7
2017-Nov-16 21:30N 44°01' W 001°32'1 2.5
2017-Nov-16 21:00N 44°00' W 001°33'4 8.9
2017-Nov-16 20:30N 43°57' W 001°37'4 7.4
2017-Nov-16 20:01N 43°54' W 001°40'0 0.2
2017-Nov-16 19:30N 43°54' W 001°40'0 0.3
2017-Nov-16 19:00N 43°54' W 001°41'0 0.2
2017-Nov-16 18:31N 43°54' W 001°41'5 9.6
2017-Nov-16 18:00N 43°51' W 001°45'510.0
2017-Nov-16 17:30N 43°46' W 001°49'510.0
2017-Nov-16 17:00N 43°42' W 001°53'5 9.8
2017-Nov-16 16:30N 43°38' W 001°56'510.1
2017-Nov-16 16:00N 43°34' W 001°60'510.0
2017-Nov-16 15:30N 43°30' W 002°04'5 9.8
2017-Nov-16 15:00N 43°25' W 002°07'510.0
2017-Nov-16 14:30N 43°21' W 002°10'3 5.8
2017-Nov-16 14:00N 43°18' W 002°12'0 0.0
2017-Nov-16 13:30N 43°18' W 002°12'0 0.0
2017-Nov-16 13:00N 43°18' W 002°12'2 4.8
2017-Nov-16 12:30N 43°20' W 002°10'510.3
2017-Nov-16 12:00N 43°24' W 002°06'510.4
2017-Nov-16 11:30N 43°29' W 002°02'510.4
2017-Nov-16 11:00N 43°33' W 001°58'510.2
2017-Nov-16 10:30N 43°37' W 001°54'510.3
2017-Nov-16 10:00N 43°42' W 001°51'510.5
2017-Nov-16 09:30N 43°46' W 001°47'510.3
2017-Nov-16 09:00N 43°51' W 001°43'510.1
2017-Nov-16 08:30N 43°55' W 001°39'510.0
2017-Nov-16 08:00N 43°59' W 001°36'510.1
2017-Nov-16 07:30N 44°04' W 001°32'4 7.2
2017-Nov-16 07:00N 44°07' W 001°29'0 0.4
2017-Nov-16 06:30N 44°07' W 001°29'0 0.2
2017-Nov-16 06:00N 44°07' W 001°29'1 1.7
2017-Nov-16 05:30N 44°08' W 001°29'1 1.5
2017-Nov-16 05:00N 44°07' W 001°28'4 7.2
2017-Nov-16 04:30N 44°10' W 001°32'0 0.5
2017-Nov-16 04:00N 44°10' W 001°32'0 0.4
2017-Nov-16 03:30N 44°10' W 001°31'0 0.5
2017-Nov-16 03:00N 44°10' W 001°31'2 3.9
2017-Nov-16 02:30N 44°08' W 001°31'4 7.8
2017-Nov-16 02:00N 44°05' W 001°34'2 2.6
2017-Nov-16 01:11N 44°07' W 001°33'0 0.0
2017-Nov-16 01:00N 44°07' W 001°33'0 0.2
2017-Nov-16 00:30N 44°07' W 001°33'1 2.2
2017-Nov-16 00:00N 44°08' W 001°32'2 4.7
2017-Nov-15 23:30N 44°05' W 001°32'1 2.4
2017-Nov-15 23:00N 44°05' W 001°31'2 1.4
2017-Nov-15 21:55N 44°06' W 001°31'2 5.6
2017-Nov-15 21:30N 44°08' W 001°33'1 1.0
2017-Nov-15 20:27N 44°09' W 001°32'4 9.5
2017-Nov-15 20:00N 44°05' W 001°35'510.1
2017-Nov-15 19:30N 44°01' W 001°39'510.0
2017-Nov-15 19:00N 43°57' W 001°42'510.1
2017-Nov-15 18:30N 43°52' W 001°45'5 9.8
2017-Nov-15 18:00N 43°48' W 001°49'5 9.4
2017-Nov-15 17:30N 43°44' W 001°52'5 9.5
2017-Nov-15 17:00N 43°40' W 001°55'5 9.8
2017-Nov-15 16:30N 43°36' W 001°59'5 9.8
2017-Nov-15 16:00N 43°31' W 002°02'5 9.7
2017-Nov-15 15:30N 43°27' W 002°05'5 9.8
2017-Nov-15 15:00N 43°23' W 002°09'5 9.8
2017-Nov-15 14:30N 43°18' W 002°12'0 0.4
2017-Nov-15 14:00N 43°18' W 002°12'5 9.2
2017-Nov-15 13:30N 43°22' W 002°09'510.4
2017-Nov-15 13:00N 43°27' W 002°05'510.4
2017-Nov-15 12:30N 43°31' W 002°02'510.1
2017-Nov-15 12:00N 43°36' W 001°58'510.0
2017-Nov-15 11:30N 43°40' W 001°55'5 9.9
2017-Nov-15 11:00N 43°44' W 001°52'510.1
2017-Nov-15 10:30N 43°49' W 001°49'510.0
2017-Nov-15 10:00N 43°53' W 001°45'510.0
2017-Nov-15 09:30N 43°58' W 001°42'5 9.9
2017-Nov-15 09:00N 44°02' W 001°38'5 9.8
2017-Nov-15 08:30N 44°06' W 001°35'5 9.8
2017-Nov-15 08:00N 44°10' W 001°32'3 5.5
2017-Nov-15 07:30N 44°13' W 001°30'2 3.9
2017-Nov-15 06:57N 44°11' W 001°30'0 0.4
2017-Nov-15 06:29N 44°11' W 001°30'1 0.7
2017-Nov-15 05:10N 44°12' W 001°30'3 3.0
2017-Nov-15 04:10N 44°14' W 001°34'4 3.2
2017-Nov-15 02:51N 44°18' W 001°34'0 0.4
2017-Nov-15 02:21N 44°18' W 001°34'0 0.4
2017-Nov-15 01:58N 44°18' W 001°34'0 0.4
2017-Nov-15 01:28N 44°18' W 001°34'0 0.5
2017-Nov-15 00:37N 44°18' W 001°33'0 0.6
2017-Nov-15 00:27N 44°18' W 001°33'0 0.5
2017-Nov-14 23:44N 44°19' W 001°33'0 0.5
2017-Nov-14 23:30N 44°19' W 001°32'3 4.4
2017-Nov-14 22:53N 44°19' W 001°29'6 1.6
2017-Nov-14 19:06N 44°22' W 001°36'5 6.6
2017-Nov-14 18:17N 44°21' W 001°29'23 9.1
2017-Nov-14 15:48N 43°60' W 001°39'3 9.4
2017-Nov-14 15:29N 43°57' W 001°41'5 9.3
2017-Nov-14 15:00N 43°53' W 001°43'5 9.3
2017-Nov-14 14:30N 43°49' W 001°46'5 9.2
2017-Nov-14 14:00N 43°45' W 001°50'5 9.2
2017-Nov-14 13:30N 43°41' W 001°53'5 9.1
2017-Nov-14 13:00N 43°37' W 001°56'5 9.1
2017-Nov-14 12:30N 43°33' W 001°59'4 8.8
2017-Nov-14 12:00N 43°29' W 002°03'4 8.7
2017-Nov-14 11:30N 43°26' W 002°06'4 8.7
2017-Nov-14 11:00N 43°22' W 002°09'4 8.8
2017-Nov-14 10:31N 43°18' W 002°12'0 0.5
2017-Nov-14 10:00N 43°18' W 002°12'0 0.0
2017-Nov-14 09:30N 43°18' W 002°12'  

Dump ship's entire track history